Dunbar, NE (68346)

7:18 PM CDT on August 03, 2015 (GMT -0500)
Dunbar Water Tower | | Change Station
CLOSE
Current Station
Personal Weather Station
Location: Dunbar, NE
Elevation: 1155 ft
Nearby Weather Stations

Elev 1155 ft 40.67 °N, 96.04 °W | Updated 9 minutes ago

Clear
Clear
80.6 °F
Feels Like 84 °F
N
4.2
Wind Variable Wind from ENE

Today
High -- | Low -- °F
--% Chance of Precip.
Yesterday
High -- | Low -- °F
Precip. -- in
6:22 AM 8:37 PM
Waning Gibbous, 83% visible
Pressure 29.94 in
Visibility 10.0 miles
Clouds Clear
Heat Index 84 °F
Dew Point 70 °F
Humidity 69%
Rainfall 0.00 in
Snow Depth Not available.
UV 1 out of 12
Pollen 7.20 out of 12
Air Quality Not available.
Flu Activity Not available.
METAR KAFK 032355Z AUTO 07003KT 10SM CLR 25/19 A2994 RMK AO2 T02520188 10271 20242

More Conditions Fewer Conditions

Pressure 29.94 in
Visibility 10.0 miles
Clouds Clear
Heat Index 84 °F
Dew Point 70 °F
Humidity 69%
Rainfall 0.00 in
Snow Depth Not available.
UV 1 out of 12
Pollen 7.20 out of 12
Air Quality Not available.
Flu Activity Not available.
METAR KAFK 032355Z AUTO 07003KT 10SM CLR 25/19 A2994 RMK AO2 T02520188 10271 20242

More Conditions Fewer Conditions

10-Day Weather Forecast

×

Almanac

Astronomy

Aug. 03, 2015 Rise Set
Actual Time
Civil Twilight
Nautical Twilight
Astronomical Twilight
Moon
Length of Visible Light
Length of Day
Tomorrow will be .
, % of the Moon is Illuminated

Today's Extremes

State Highs State Lows

Community

WunderPhotos

Upload Photos

1,843,788 photos uploaded!

WunderBlogs® & News

Nearby

Air Quality

  Air Quality AQ Index Pollutant
Not available.

Snow Depth

Station Depth Elevation

Earthquake Activity

City Distance Mag. Time & Date
Minimum magnitude displayed is 2.5.

Coastal Water Temperatures

Place Temperature

Stations

Nearby Weather Stations

Station Location Temp. Windchill Dew Point Humidity Wind Precip. Elev Updated Type